Time;durP1;ratioP1;P1;durP2;ratioP2;P2;SDS_P1;SDS_P2;PMS_P1;PMS_P2;Temp;Humidity;BMP_temperature;BMP_pressure;BME280_temperature;BME280_humidity;BME280_pressure;Samples;Min_cycle;Max_cycle;Signal;HPM_P1;HPM_P2
2024/01/04 00:01:38;;;;;;;30.42;21.98;;;;;;;;;;5014371;28;20026;-65
2024/01/04 00:04:04;;;;;;;28.00;22.17;;;;;;;;;;5013820;28;20033;-65
2024/01/04 00:06:30;;;;;;;31.77;22.23;;;;;;;;;;5013875;28;20033;-65
2024/01/04 00:08:56;;;;;;;29.15;22.17;;;;;;;;;;5014240;28;20021;-65
2024/01/04 00:11:22;;;;;;;29.95;22.25;;;;;;;;;;5013906;28;20582;-65
2024/01/04 00:13:48;;;;;;;30.55;22.15;;;;;;;;;;5012235;28;20018;-65
2024/01/04 00:16:15;;;;;;;30.05;22.65;;;;;;;;;;5012335;28;20032;-65
2024/01/04 00:18:41;;;;;;;28.30;23.02;;;;;;;;;;4998620;28;20073;-65
2024/01/04 00:21:07;;;;;;;29.65;22.25;;;;;;;;;;4994123;28;20424;-65
2024/01/04 00:23:34;;;;;;;32.75;23.45;;;;;;;;;;5009128;28;20042;-65
2024/01/04 00:26:01;;;;;;;29.58;23.08;;;;;;;;;;5012915;28;20028;-65
2024/01/04 00:28:27;;;;;;;34.45;24.05;;;;;;;;;;5013845;28;20052;-65
2024/01/04 00:30:53;;;;;;;27.45;22.42;;;;;;;;;;5013234;28;20376;-65
2024/01/04 00:33:18;;;;;;;29.83;22.65;;;;;;;;;;5013349;28;20022;-65
2024/01/04 00:35:44;;;;;;;29.80;22.52;;;;;;;;;;5009239;28;20026;-65
2024/01/04 00:38:10;;;;;;;28.77;21.70;;;;;;;;;;4999911;28;20615;-64
2024/01/04 00:40:39;;;;;;;31.55;23.42;;;;;;;;;;5012765;28;20025;-65
2024/01/04 00:43:05;;;;;;;30.33;23.17;;;;;;;;;;5011814;28;20022;-65
2024/01/04 00:45:31;;;;;;;32.03;22.92;;;;;;;;;;5012476;28;20498;-65
2024/01/04 00:47:57;;;;;;;35.60;23.05;;;;;;;;;;5010990;28;20101;-65
2024/01/04 00:50:23;;;;;;;35.15;23.30;;;;;;;;;;5012185;28;20057;-65
2024/01/04 00:52:49;;;;;;;30.80;21.67;;;;;;;;;;5010264;28;20554;-65
2024/01/04 00:55:15;;;;;;;29.75;22.00;;;;;;;;;;5011397;28;20391;-65
2024/01/04 00:57:41;;;;;;;29.42;22.48;;;;;;;;;;5013168;28;20022;-65
2024/01/04 01:00:07;;;;;;;29.30;21.55;;;;;;;;;;5012508;28;20073;-65
2024/01/04 01:02:33;;;;;;;30.75;22.88;;;;;;;;;;5011979;28;20073;-65
2024/01/04 01:04:59;;;;;;;28.95;21.95;;;;;;;;;;5012555;28;20061;-65
2024/01/04 01:07:25;;;;;;;29.52;23.48;;;;;;;;;;5012556;28;20014;-65
2024/01/04 01:09:52;;;;;;;32.38;22.42;;;;;;;;;;5012641;28;20030;-65
2024/01/04 01:12:18;;;;;;;32.25;23.92;;;;;;;;;;5012665;28;20081;-65
2024/01/04 01:14:44;;;;;;;32.20;22.92;;;;;;;;;;5012632;28;20013;-65
2024/01/04 01:17:10;;;;;;;28.38;22.60;;;;;;;;;;5012611;28;20064;-65
2024/01/04 01:19:37;;;;;;;31.75;23.15;;;;;;;;;;5012370;28;20025;-65
2024/01/04 01:22:03;;;;;;;27.10;21.70;;;;;;;;;;5012535;28;20081;-65
2024/01/04 01:24:29;;;;;;;30.00;23.27;;;;;;;;;;5012886;28;20133;-65
2024/01/04 01:26:55;;;;;;;31.25;23.38;;;;;;;;;;5012360;28;20503;-64
2024/01/04 01:29:21;;;;;;;29.25;23.45;;;;;;;;;;5012063;28;20149;-64
2024/01/04 01:31:47;;;;;;;31.95;23.95;;;;;;;;;;5012362;28;20029;-65
2024/01/04 01:34:13;;;;;;;30.58;22.70;;;;;;;;;;5011162;28;20045;-65
2024/01/04 01:36:42;;;;;;;33.17;23.17;;;;;;;;;;4993193;28;20036;-65
2024/01/04 01:39:11;;;;;;;32.15;22.42;;;;;;;;;;5006183;28;20050;-65
2024/01/04 01:41:37;;;;;;;31.23;22.75;;;;;;;;;;5012439;28;20022;-65
2024/01/04 01:44:03;;;;;;;30.53;22.43;;;;;;;;;;5006737;28;20038;-64
2024/01/04 01:46:29;;;;;;;36.37;24.93;;;;;;;;;;4992554;28;20033;-64
2024/01/04 01:48:55;;;;;;;35.92;23.92;;;;;;;;;;5004832;28;20061;-64
2024/01/04 01:51:21;;;;;;;31.60;24.93;;;;;;;;;;5011891;28;20022;-65
2024/01/04 01:53:48;;;;;;;33.25;24.38;;;;;;;;;;5011147;28;20085;-65
2024/01/04 01:56:14;;;;;;;29.48;24.10;;;;;;;;;;5011767;28;20037;-65
2024/01/04 01:58:40;;;;;;;31.77;23.47;;;;;;;;;;5012086;28;20045;-65
2024/01/04 02:01:07;;;;;;;31.73;22.70;;;;;;;;;;5012387;28;20018;-65
2024/01/04 02:03:33;;;;;;;35.63;24.33;;;;;;;;;;5011708;28;20132;-65
2024/01/04 02:05:58;;;;;;;31.90;24.05;;;;;;;;;;5012065;28;20061;-65
2024/01/04 02:08:24;;;;;;;29.38;23.10;;;;;;;;;;5012266;28;20022;-65
2024/01/04 02:10:50;;;;;;;30.85;23.38;;;;;;;;;;5012159;28;20045;-65
2024/01/04 02:13:16;;;;;;;29.17;23.20;;;;;;;;;;5011839;28;20022;-65
2024/01/04 02:15:43;;;;;;;30.67;24.37;;;;;;;;;;5015970;28;20018;-65
2024/01/04 02:18:09;;;;;;;28.55;22.42;;;;;;;;;;5015460;28;20049;-65
2024/01/04 02:20:35;;;;;;;30.77;24.00;;;;;;;;;;5015850;28;20101;-65
2024/01/04 02:23:01;;;;;;;31.37;23.10;;;;;;;;;;5015417;28;20111;-65
2024/01/04 02:25:27;;;;;;;31.40;23.23;;;;;;;;;;5015811;28;20029;-65
2024/01/04 02:27:53;;;;;;;27.93;23.67;;;;;;;;;;4999232;28;20041;-65
2024/01/04 02:30:19;;;;;;;34.33;23.70;;;;;;;;;;4996309;28;20030;-64
2024/01/04 02:32:45;;;;;;;32.65;24.15;;;;;;;;;;4999145;28;20034;-65
2024/01/04 02:35:11;;;;;;;33.70;24.63;;;;;;;;;;5004639;28;20041;-65
2024/01/04 02:37:37;;;;;;;35.58;25.27;;;;;;;;;;5023238;28;20030;-65
2024/01/04 02:40:03;;;;;;;31.52;24.35;;;;;;;;;;5010157;28;20537;-65
2024/01/04 02:42:31;;;;;;;29.50;23.35;;;;;;;;;;5014597;28;20026;-65
2024/01/04 02:44:57;;;;;;;32.88;23.73;;;;;;;;;;5014529;28;20107;-64
2024/01/04 02:47:23;;;;;;;28.63;23.53;;;;;;;;;;5014879;28;20492;-65
2024/01/04 02:49:49;;;;;;;31.70;23.92;;;;;;;;;;5029042;28;20022;-65
2024/01/04 02:52:31;;;;;;;31.63;24.00;;;;;;;;;;5014224;28;20416;-64
2024/01/04 02:54:57;;;;;;;32.00;23.53;;;;;;;;;;5014406;28;20088;-64
2024/01/04 02:57:22;;;;;;;30.92;24.33;;;24.10;1.00;;;;;;5014213;28;20093;-65
2024/01/04 02:59:48;;;;;;;29.67;22.07;;;23.90;99.90;;;;;;5012073;28;20065;-65
2024/01/04 03:02:15;;;;;;;31.77;24.57;;;23.90;99.90;;;;;;5014464;28;20040;-64
2024/01/04 03:04:42;;;;;;;32.43;24.70;;;23.90;99.90;;;;;;5014251;28;20061;-65
2024/01/04 03:07:08;;;;;;;29.33;24.33;;;23.90;99.90;;;;;;5012920;28;20045;-64
2024/01/04 03:12:55;;;;;;;32.07;24.40;;;23.90;99.90;;;;;;5008482;28;20088;-65
2024/01/04 03:15:20;;;;;;;34.40;24.00;;;24.00;99.90;;;;;;5013977;28;20423;-65
2024/01/04 03:17:46;;;;;;;32.80;25.43;;;24.00;99.90;;;;;;5014129;28;20109;-64
2024/01/04 03:20:12;;;;;;;32.90;25.00;;;23.90;99.90;;;;;;5014219;28;20437;-64
2024/01/04 03:22:37;;;;;;;33.00;25.53;;;23.90;99.90;;;;;;5013750;28;20030;-64
2024/01/04 03:25:05;;;;;;;33.47;24.43;;;23.80;99.90;;;;;;5013445;28;20034;-64
2024/01/04 03:27:31;;;;;;;33.43;25.13;;;23.80;99.90;;;;;;5013810;28;20196;-64
2024/01/04 03:29:57;;;;;;;33.33;25.43;;;23.90;99.90;;;;;;5013820;28;20112;-64
2024/01/04 03:32:22;;;;;;;36.72;26.90;;;23.90;99.90;;;;;;5013559;28;20058;-65
2024/01/04 03:34:49;;;;;;;32.10;24.00;;;23.80;99.90;;;;;;5014459;28;20038;-65
2024/01/04 03:37:15;;;;;;;31.90;25.20;;;23.80;99.90;;;;;;5013224;28;20032;-65
2024/01/04 03:39:41;;;;;;;35.22;25.50;;;23.90;99.90;;;;;;5013519;28;20469;-65
2024/01/04 03:42:06;;;;;;;36.03;25.20;;;23.80;99.90;;;;;;5013061;28;20022;-65
2024/01/04 03:44:32;;;;;;;30.67;24.03;;;23.90;99.90;;;;;;5013133;28;20049;-64
2024/01/04 03:46:57;;;;;;;30.67;25.20;;;23.90;99.90;;;;;;5013369;28;20018;-64
2024/01/04 03:49:23;;;;;;;35.83;25.23;;;23.70;99.90;;;;;;5013508;28;20106;-64
2024/01/04 03:51:49;;;;;;;32.60;24.50;;;23.80;99.90;;;;;;5020189;28;20030;-64
2024/01/04 03:54:14;;;;;;;31.90;23.80;;;23.70;99.90;;;;;;5012995;28;20034;-65
2024/01/04 03:56:40;;;;;;;31.40;24.10;;;23.80;99.90;;;;;;5012964;28;20049;-65
2024/01/04 03:59:11;;;;;;;32.57;25.00;;;23.80;99.90;;;;;;5013456;28;20112;-65
2024/01/04 04:02:05;;;;;;;33.83;24.70;;;23.70;99.90;;;;;;5012950;28;20022;-64
2024/01/04 04:04:31;;;;;;;30.37;23.67;;;23.80;99.90;;;;;;4995977;28;20396;-64
2024/01/04 04:06:56;;;;;;;34.20;23.83;;;23.70;99.90;;;;;;4994662;28;20018;-64
2024/01/04 04:09:22;;;;;;;34.70;25.60;;;23.80;99.90;;;;;;4994590;28;20022;-64
2024/01/04 04:11:49;;;;;;;33.47;25.23;;;23.80;99.90;;;;;;4994774;28;20519;-65
2024/01/04 04:14:34;;;;;;;30.87;23.63;;;23.70;99.90;;;;;;5009378;28;20030;-65
2024/01/04 04:20:22;;;;;;;32.37;24.43;;;;;;;;;;5000049;28;20073;-65
2024/01/04 04:22:48;;;;;;;33.17;25.00;;;;;;;;;;5012010;28;20498;-64
2024/01/04 04:25:14;;;;;;;31.43;23.33;;;;;;;;;;5013438;28;20057;-64
2024/01/04 04:27:39;;;;;;;33.13;24.53;;;;;;;;;;5013558;28;20022;-65
2024/01/04 04:30:06;;;;;;;33.27;24.17;;;;;;;;;;5013692;28;20455;-65
2024/01/04 04:32:32;;;;;;;30.67;23.97;;;;;;;;;;5013277;28;20025;-64
2024/01/04 04:34:58;;;;;;;32.37;24.87;;;;;;;;;;5013078;28;20028;-64
2024/01/04 04:37:24;;;;;;;33.93;24.40;;;;;;;;;;5012289;28;20029;-64
2024/01/04 04:39:50;;;;;;;35.33;25.27;;;;;;;;;;5011784;28;20381;-64
2024/01/04 04:42:16;;;;;;;32.77;24.83;;;;;;;;;;5011200;28;20503;-64
2024/01/04 04:44:42;;;;;;;36.83;25.13;;;;;;;;;;5013071;28;20129;-65
2024/01/04 04:47:08;;;;;;;34.10;24.73;;;;;;;;;;5013421;28;20046;-65
2024/01/04 04:49:34;;;;;;;32.87;25.00;;;;;;;;;;5013295;28;20109;-65
2024/01/04 04:52:00;;;;;;;31.97;24.17;;;;;;;;;;5013049;28;20022;-64
2024/01/04 04:54:26;;;;;;;36.60;24.07;;;;;;;;;;5011793;28;20078;-65
2024/01/04 04:56:52;;;;;;;30.33;23.97;;;;;;;;;;5011792;28;20408;-62
2024/01/04 04:59:18;;;;;;;29.87;23.67;;;;;;;;;;5013012;28;20026;-64
2024/01/04 05:01:44;;;;;;;32.67;24.87;;;;;;;;;;5012728;28;20034;-63
2024/01/04 05:04:10;;;;;;;31.20;23.47;;;;;;;;;;4994720;28;20050;-64
2024/01/04 05:06:36;;;;;;;31.17;23.03;;;;;;;;;;5001526;28;20030;-64
2024/01/04 05:09:02;;;;;;;33.63;21.67;;;;;;;;;;5007224;28;20061;-64
2024/01/04 05:11:28;;;;;;;26.60;22.03;;;;;;;;;;5010143;28;20480;-64
2024/01/04 05:13:54;;;;;;;33.87;22.43;;;;;;;;;;5011280;28;20116;-63
2024/01/04 05:16:20;;;;;;;31.30;23.07;;;;;;;;;;5012182;28;20108;-64
2024/01/04 05:18:46;;;;;;;30.87;22.43;;;;;;;;;;5009314;28;20030;-64
2024/01/04 05:21:12;;;;;;;30.90;22.10;;;;;;;;;;5005667;28;20033;-65
2024/01/04 05:23:38;;;;;;;29.10;20.33;;;;;;;;;;5007698;28;20042;-64
2024/01/04 05:26:04;;;;;;;30.27;21.63;;;;;;;;;;5007270;28;20033;-63
2024/01/04 05:28:30;;;;;;;31.43;22.50;;;;;;;;;;5012484;28;20421;-64
2024/01/04 05:30:56;;;;;;;31.20;22.00;;;;;;;;;;5012416;28;20030;-63
2024/01/04 05:33:22;;;;;;;29.30;22.27;;;;;;;;;;5012356;28;20444;-64
2024/01/04 05:35:50;;;;;;;31.17;21.67;;;;;;;;;;5010273;28;20029;-64
2024/01/04 05:38:16;;;;;;;30.10;21.40;;;;;;;;;;5012152;28;20062;-63
2024/01/04 05:40:42;;;;;;;25.77;20.60;;;;;;;;;;5012405;28;20029;-63
2024/01/04 05:43:08;;;;;;;30.17;20.87;;;;;;;;;;5012371;28;20452;-63
2024/01/04 05:45:34;;;;;;;25.43;19.83;;;;;;;;;;5011815;28;20065;-64
2024/01/04 05:48:00;;;;;;;27.07;20.40;;;;;;;;;;5013074;28;20208;-64
2024/01/04 05:50:26;;;;;;;23.73;18.90;;;;;;;;;;5026897;28;20029;-64
2024/01/04 05:52:52;;;;;;;21.13;17.60;;;;;;;;;;5012167;28;20033;-64
2024/01/04 05:55:18;;;;;;;25.83;18.03;;;;;;;;;;5005924;28;20030;-64
2024/01/04 05:57:44;;;;;;;21.23;17.90;;;;;;;;;;4992659;28;20371;-64
2024/01/04 06:00:10;;;;;;;23.70;17.40;;;;;;;;;;5001103;28;20084;-64
2024/01/04 06:02:36;;;;;;;21.47;16.27;;;;;;;;;;5012107;28;20104;-64
2024/01/04 06:05:03;;;;;;;20.27;16.33;;;;;;;;;;5011778;28;20044;-64
2024/01/04 06:07:28;;;;;;;23.33;15.73;;;;;;;;;;5012049;28;20025;-63
2024/01/04 06:09:54;;;;;;;22.20;16.13;;;;;;;;;;5012581;28;20033;-63
2024/01/04 06:12:20;;;;;;;18.57;15.47;;;;;;;;;;5011833;28;20037;-63
2024/01/04 06:14:48;;;;;;;19.87;15.37;;;;;;;;;;5011696;28;20018;-64
2024/01/04 06:17:15;;;;;;;18.43;14.07;;;;;;;;;;5011837;28;20329;-64
2024/01/04 06:19:41;;;;;;;20.73;15.00;;;;;;;;;;5011951;28;20100;-64
2024/01/04 06:22:07;;;;;;;19.40;14.47;;;;;;;;;;5010625;28;20026;-65
2024/01/04 06:24:33;;;;;;;21.53;15.73;;;;;;;;;;5009596;28;20168;-64
2024/01/04 06:26:59;;;;;;;21.43;14.80;;;;;;;;;;5021755;28;20026;-64
2024/01/04 06:29:25;;;;;;;21.10;15.33;;;;;;;;;;5011018;28;20408;-64
2024/01/04 06:31:51;;;;;;;20.20;15.27;;;;;;;;;;5011992;28;20052;-64
2024/01/04 06:34:17;;;;;;;23.93;15.40;;;;;;;;;;5011909;28;20076;-64
2024/01/04 06:36:47;;;;;;;24.07;15.80;;;;;;;;;;4996097;28;20081;-65
2024/01/04 06:39:13;;;;;;;22.33;15.63;;;;;;;;;;5009026;28;20414;-65
2024/01/04 06:41:43;;;;;;;22.50;17.33;;;;;;;;;;5004607;28;20042;-65
2024/01/04 06:44:09;;;;;;;23.60;17.63;;;;;;;;;;5004714;28;20369;-65
2024/01/04 06:46:35;;;;;;;25.80;19.63;;;;;;;;;;5010871;28;20456;-65
2024/01/04 06:49:01;;;;;;;21.10;17.17;;;;;;;;;;5008725;28;20112;-65
2024/01/04 06:51:27;;;;;;;24.10;17.60;;;;;;;;;;4994527;28;20043;-65
2024/01/04 06:53:53;;;;;;;22.87;17.50;;;;;;;;;;5011333;28;20022;-65
2024/01/04 06:56:19;;;;;;;25.40;18.37;;;;;;;;;;5010344;28;20022;-65
2024/01/04 06:58:46;;;;;;;23.07;16.90;;;;;;;;;;5010456;28;20045;-65
2024/01/04 07:01:12;;;;;;;21.83;16.70;;;;;;;;;;5011224;28;20030;-64
2024/01/04 07:03:39;;;;;;;26.33;17.17;;;;;;;;;;5012426;28;20116;-64
2024/01/04 07:06:06;;;;;;;23.70;16.67;;;;;;;;;;5010852;28;20057;-64
2024/01/04 07:08:32;;;;;;;20.00;16.70;;;;;;;;;;5014232;28;20025;-65
2024/01/04 07:10:58;;;;;;;20.93;16.07;;;;;;;;;;5014861;28;20041;-64
2024/01/04 07:13:25;;;;;;;24.93;17.43;;;;;;;;;;5014593;28;20041;-65
2024/01/04 07:15:52;;;;;;;28.97;17.40;;;;;;;;;;5011895;28;20058;-65
2024/01/04 07:18:18;;;;;;;24.27;18.53;;;;;;;;;;5013396;28;20036;-65
2024/01/04 07:20:44;;;;;;;25.67;18.23;;;;;;;;;;5003226;28;20034;-65
2024/01/04 07:23:10;;;;;;;28.67;18.37;;;;;;;;;;5028626;28;20109;-65
2024/01/04 07:25:36;;;;;;;27.67;19.63;;;;;;;;;;5011868;28;20439;-65
2024/01/04 07:28:03;;;;;;;24.60;17.90;;;;;;;;;;5013567;28;20034;-64
2024/01/04 07:30:29;;;;;;;25.70;18.63;;;;;;;;;;5014249;28;20022;-65
2024/01/04 07:32:55;;;;;;;21.23;17.70;;;;;;;;;;5012782;28;20041;-65
2024/01/04 07:35:23;;;;;;;24.63;17.47;;;;;;;;;;5012634;28;20349;-65
2024/01/04 07:37:49;;;;;;;20.07;15.63;;;;;;;;;;5012817;28;20036;-64
2024/01/04 07:40:15;;;;;;;25.67;18.00;;;;;;;;;;5013310;28;20434;-65
2024/01/04 07:42:42;;;;;;;20.03;16.23;;;;;;;;;;5013384;28;20022;-65
2024/01/04 07:45:08;;;;;;;20.97;16.13;;;;;;;;;;5013047;28;20148;-65
2024/01/04 07:47:37;;;;;;;22.30;15.67;;;;;;;;;;5011473;28;20034;-65
2024/01/04 07:50:04;;;;;;;20.90;15.27;;;;;;;;;;5013329;28;20119;-65
2024/01/04 07:52:30;;;;;;;25.90;16.47;;;;;;;;;;5013866;28;20026;-63
2024/01/04 07:54:56;;;;;;;19.80;16.20;;;;;;;;;;5012073;28;20393;-63
2024/01/04 07:57:22;;;;;;;22.23;16.60;;;;;;;;;;5007066;28;20092;-64
2024/01/04 07:59:48;;;;;;;26.80;17.43;;;;;;;;;;5009882;28;20105;-64
2024/01/04 08:02:15;;;;;;;24.73;16.27;;;;;;;;;;5012100;28;20030;-63
2024/01/04 08:04:41;;;;;;;20.60;16.70;;;;;;;;;;5012637;28;20044;-64
2024/01/04 08:07:07;;;;;;;22.47;16.37;;;;;;;;;;5010233;28;20025;-64
2024/01/04 08:09:33;;;;;;;23.00;16.27;;;;;;;;;;5013427;28;20048;-63
2024/01/04 08:11:59;;;;;;;21.30;15.90;;;;;;;;;;5005977;28;20455;-63
2024/01/04 08:14:25;;;;;;;23.63;16.03;;;;;;;;;;5006583;28;20113;-64
2024/01/04 08:16:51;;;;;;;20.77;16.30;;;;;;;;;;5010781;28;20033;-64
2024/01/04 08:19:17;;;;;;;20.57;15.90;;;;;;;;;;5013605;28;20025;-64
2024/01/04 08:21:44;;;;;;;21.43;16.27;;;;;;;;;;4996262;28;20030;-64
2024/01/04 08:24:09;;;;;;;23.07;16.17;;;;;;;;;;5013591;28;20100;-64
2024/01/04 08:26:42;;;;;;;18.57;14.30;;;;;;;;;;5010466;28;20460;-64
2024/01/04 08:29:08;;;;;;;18.57;14.50;;;;;;;;;;5011698;28;20029;-64
2024/01/04 08:31:34;;;;;;;19.97;14.27;;;;;;;;;;5010453;28;20045;-63
2024/01/04 08:34:00;;;;;;;19.90;15.50;;;;;;;;;;5013332;28;20022;-64
2024/01/04 08:36:26;;;;;;;22.67;16.73;;;;;;;;;;5002054;28;20479;-63
2024/01/04 08:38:52;;;;;;;26.57;18.20;;;;;;;;;;4991595;28;20074;-63
2024/01/04 08:41:18;;;;;;;28.30;18.07;;;;;;;;;;5000103;28;20026;-64
2024/01/04 08:43:44;;;;;;;23.83;16.70;;;;;;;;;;5001824;28;20112;-64
2024/01/04 08:46:10;;;;;;;28.57;17.53;;;;;;;;;;5007762;28;20029;-65
2024/01/04 08:48:36;;;;;;;26.20;15.90;;;;;;;;;;5009901;28;20093;-65
2024/01/04 08:51:03;;;;;;;23.70;15.60;;;;;;;;;;5011836;28;20388;-65
2024/01/04 08:53:29;;;;;;;21.33;14.90;;;;;;;;;;5008421;28;20049;-63
2024/01/04 08:55:55;;;;;;;25.03;16.73;;;;;;;;;;5010131;28;20057;-63
2024/01/04 08:58:21;;;;;;;20.80;15.53;;;;;;;;;;5014188;28;20033;-66
2024/01/04 09:00:47;;;;;;;22.83;17.10;;;;;;;;;;5011004;28;20136;-65
2024/01/04 09:03:13;;;;;;;21.93;15.90;;;;;;;;;;5010548;28;20578;-66
2024/01/04 09:05:39;;;;;;;23.03;16.40;;;;;;;;;;5005875;28;20038;-65
2024/01/04 09:08:05;;;;;;;21.60;17.10;;;;;;;;;;5010681;28;20037;-65
2024/01/04 09:10:32;;;;;;;24.87;17.50;;;;;;;;;;5011364;28;20041;-65
2024/01/04 09:12:58;;;;;;;25.50;18.10;;;;;;;;;;5010927;28;20029;-65
2024/01/04 09:15:25;;;;;;;27.83;18.90;;;;;;;;;;5004636;28;20041;-65
2024/01/04 09:17:51;;;;;;;22.40;17.67;;;;;;;;;;5009482;28;20061;-65
2024/01/04 09:20:17;;;;;;;19.83;15.17;;;;;;;;;;5009810;28;20049;-65
2024/01/04 09:22:43;;;;;;;17.43;14.33;;;;;;;;;;5010912;28;20107;-65
2024/01/04 09:25:09;;;;;;;22.93;15.87;;;;;;;;;;5011565;28;20038;-65
2024/01/04 09:27:35;;;;;;;23.90;15.83;;;;;;;;;;5011953;28;20033;-65
2024/01/04 09:30:01;;;;;;;20.93;16.63;;;;;;;;;;5011819;28;20448;-65
2024/01/04 09:32:27;;;;;;;21.37;15.97;;;;;;;;;;5011471;28;20037;-65
2024/01/04 09:34:53;;;;;;;21.27;16.17;;;;;;;;;;5011627;28;20135;-65
2024/01/04 09:37:19;;;;;;;24.02;16.80;;;;;;;;;;5011805;28;20455;-65
2024/01/04 09:39:45;;;;;;;22.37;16.83;;;;;;;;;;4943855;28;1979065;-65
2024/01/04 09:42:13;;;;;;;26.88;17.17;;;;;;;;;;5012506;28;20117;-65
2024/01/04 09:44:40;;;;;;;20.55;16.85;;;;;;;;;;5012335;28;20033;-65
2024/01/04 09:47:10;;;;;;;22.90;16.97;;;;;;;;;;5012120;28;20030;-65
2024/01/04 09:49:39;;;;;;;23.90;16.50;;;;;;;;;;5012271;28;20108;-65
2024/01/04 09:52:06;;;;;;;22.58;16.65;;;;;;;;;;5012195;28;20029;-65
2024/01/04 09:54:32;;;;;;;21.90;16.35;;;;;;;;;;5012541;28;20087;-65
2024/01/04 09:57:00;;;;;;;26.42;17.42;;;;;;;;;;5012013;28;20083;-65
2024/01/04 09:59:26;;;;;;;20.92;16.00;;;;;;;;;;5012029;28;20041;-65
2024/01/04 10:01:52;;;;;;;20.38;15.48;;;;;;;;;;5012193;28;20028;-65
2024/01/04 10:04:18;;;;;;;23.67;15.25;;;;;;;;;;5011896;28;20136;-65
2024/01/04 10:06:45;;;;;;;20.90;16.27;;;;;;;;;;5012209;28;20049;-65
2024/01/04 10:09:32;;;;;;;22.58;15.75;;;;;;;;;;5012145;28;20037;-65
2024/01/04 10:12:05;;;;;;;22.30;16.45;;;;;;;;;;5012097;28;20353;-65
2024/01/04 10:14:31;;;;;;;20.70;15.77;;;;;;;;;;5012488;28;20104;-65
2024/01/04 10:16:58;;;;;;;26.33;17.02;;;;;;;;;;5011683;28;20030;-65
2024/01/04 10:19:25;;;;;;;20.77;16.50;;;;;;;;;;5010333;28;20026;-64
2024/01/04 10:21:52;;;;;;;18.63;15.93;;;;;;;;;;5011701;28;20028;-65
2024/01/04 10:24:24;;;;;;;20.08;15.75;;;;;;;;;;5010394;28;20120;-65
2024/01/04 10:26:59;;;;;;;23.58;16.27;;;;;;;;;;5011798;28;20030;-65
2024/01/04 10:29:28;;;;;;;17.77;14.63;;;;;;;;;;5011879;28;20110;-65
2024/01/04 10:31:57;;;;;;;21.85;15.40;;;;;;;;;;5011856;28;20343;-65
2024/01/04 10:34:25;;;;;;;21.13;15.70;;;;;;;;;;5011911;28;20044;-65
2024/01/04 10:36:51;;;;;;;18.55;14.82;;;;;;;;;;5015701;28;20026;-65
2024/01/04 10:39:20;;;;;;;21.20;14.75;;;;;;;;;;5013656;28;20458;-65
2024/01/04 10:41:55;;;;;;;18.95;14.65;;;;;;;;;;5013990;28;20387;-65
2024/01/04 10:44:21;;;;;;;19.92;14.68;;;;;;;;;;5013958;28;20456;-65
2024/01/04 10:46:47;;;;;;;18.90;14.90;;;;;;;;;;5015215;28;20076;-65
2024/01/04 10:49:19;;;;;;;21.15;14.70;;;;;;;;;;5014806;28;20041;-65
2024/01/04 10:51:46;;;;;;;23.25;15.63;;;;;;;;;;5014912;28;20495;-65
2024/01/04 10:54:22;;;;;;;20.90;15.27;;;;;;;;;;5015209;28;20026;-65
2024/01/04 10:56:48;;;;;;;24.80;15.93;;;;;;;;;;5015185;28;20022;-65
2024/01/04 10:59:14;;;;;;;22.08;17.13;;;;;;;;;;5015318;28;20162;-65
2024/01/04 11:01:41;;;;;;;22.65;16.80;;;;;;;;;;5014930;28;20484;-65
2024/01/04 11:04:07;;;;;;;22.33;16.33;;;;;;;;;;4998394;28;20035;-65
2024/01/04 11:06:39;;;;;;;21.13;15.63;;;;;;;;;;4995290;28;20030;-65
2024/01/04 11:09:06;;;;;;;20.50;15.35;;;;;;;;;;4995528;28;20104;-65
2024/01/04 11:11:33;;;;;;;20.23;14.70;;;;;;;;;;4995335;28;20022;-65
2024/01/04 11:14:00;;;;;;;22.02;14.35;;;;;;;;;;4995484;28;20027;-64
2024/01/04 11:16:38;;;;;;;20.45;15.10;;;;;;;;;;5010225;28;20022;-64
2024/01/04 11:19:22;;;;;;;17.80;13.88;;;;;;;;;;4995510;28;20027;-64
2024/01/04 11:21:51;;;;;;;20.10;12.50;;;;;;;;;;4995148;28;20024;-65
2024/01/04 11:24:36;;;;;;;19.90;13.70;;;;;;;;;;4995170;28;20050;-65
2024/01/04 11:27:04;;;;;;;16.15;13.23;;;;;;;;;;4995681;28;20113;-65
2024/01/04 11:29:30;;;;;;;19.25;14.18;;;;;;;;;;4995202;28;20050;-65
2024/01/04 11:31:59;;;;;;;17.02;13.38;;;;;;;;;;4995143;28;20100;-65
2024/01/04 11:34:26;;;;;;;16.70;12.32;;;;;;;;;;4995167;28;20360;-65
2024/01/04 11:37:07;;;;;;;15.23;11.93;;;;;;;;;;4994857;28;20021;-65
2024/01/04 11:39:33;;;;;;;15.20;11.48;;;;;;;;;;4994717;28;20061;-64
2024/01/04 11:41:59;;;;;;;15.70;11.32;;;;;;;;;;4994640;28;20022;-65
2024/01/04 11:44:35;;;;;;;20.30;11.52;;;;;;;;;;4994641;28;20137;-64
2024/01/04 11:47:03;;;;;;;13.40;10.32;;;;;;;;;;5009156;28;20026;-64
2024/01/04 11:49:29;;;;;;;17.98;11.73;;;;;;;;;;4995008;28;20027;-64
2024/01/04 11:52:04;;;;;;;15.48;11.27;;;;;;;;;;4994821;28;20038;-66
2024/01/04 11:54:31;;;;;;;;;;;;;;;;;;4995212;28;20085;-64
2024/01/04 11:56:57;;;;;;;17.58;11.80;;;;;;;;;;4994472;28;19906;-65
2024/01/04 11:59:32;;;;;;;15.80;11.48;;;;;;;;;;4994481;28;20109;-64
2024/01/04 12:01:58;;;;;;;17.20;11.57;;;;;;;;;;4994477;28;20018;-64
2024/01/04 12:04:24;;;;;;;15.25;12.45;;;;;;;;;;4994229;28;20049;-64
2024/01/04 12:06:50;;;;;;;18.77;13.25;;;;;;;;;;4994392;28;20022;-64
2024/01/04 12:09:16;;;;;;;16.75;12.60;;;;;;;;;;5009284;28;20076;-64
2024/01/04 12:11:43;;;;;;;20.08;13.05;;;;;;;;;;4994162;28;20564;-65
2024/01/04 12:14:09;;;;;;;20.15;12.57;;;;;;;;;;4994479;28;20065;-65
2024/01/04 12:16:38;;;;;;;20.23;13.13;;;;;;;;;;4994344;28;20058;-65
2024/01/04 12:19:04;;;;;;;22.15;14.60;;;;;;;;;;4994385;28;20109;-65
2024/01/04 12:21:30;;;;;;;19.92;12.93;;;;;;;;;;4993923;28;20031;-64
2024/01/04 12:23:56;;;;;;;18.58;12.55;;;;;;;;;;4994033;28;20129;-65
2024/01/04 12:26:23;;;;;;;16.42;12.65;;;;;;;;;;4994032;28;20022;-65
2024/01/04 12:28:51;;;;;;;21.17;13.35;;;;;;;;;;5008878;28;20072;-65
2024/01/04 12:31:17;;;;;;;18.58;12.60;;;;;;;;;;4994045;28;20132;-65
2024/01/04 12:33:44;;;;;;;14.48;11.85;;;;;;;;;;4993803;28;20033;-66
2024/01/04 12:36:10;;;;;;;18.13;11.02;;;;;;;;;;5001053;28;20476;-66
2024/01/04 12:38:36;;;;;;;16.10;11.77;;;;;;;;;;5011811;28;20514;-65
2024/01/04 12:41:02;;;;;;;20.60;12.40;;;;;;;;;;5012822;28;20065;-66
2024/01/04 12:43:28;;;;;;;15.13;11.63;;;;;;;;;;5013167;28;20381;-65
2024/01/04 12:46:08;;;;;;;13.82;11.40;;;;;;;;;;5013138;28;20048;-65
2024/01/04 12:48:35;;;;;;;15.05;10.80;;;;;;;;;;5013524;28;20025;-65
2024/01/04 12:51:16;;;;;;;16.30;11.40;;;;;;;;;;5012953;28;20421;-66
2024/01/04 12:53:44;;;;;;;15.02;11.63;;;;;;;;;;5013318;28;20384;-65
2024/01/04 12:56:11;;;;;;;17.77;12.02;;;;;;;;;;5012992;28;20413;-65
2024/01/04 12:58:37;;;;;;;17.48;11.77;;;;;;;;;;5010822;28;20107;-65
2024/01/04 13:01:03;;;;;;;15.68;11.77;;;;;;;;;;5011438;28;20448;-65
2024/01/04 13:03:29;;;;;;;15.13;11.20;;;;;;;;;;5012665;28;20377;-65
2024/01/04 13:05:55;;;;;;;14.85;11.82;;;;;;;;;;5012749;28;20125;-65
2024/01/04 13:08:21;;;;;;;15.50;10.07;;;;;;;;;;5012925;28;20128;-65
2024/01/04 13:10:47;;;;;;;13.00;10.20;;;;;;;;;;5012908;28;20441;-65
2024/01/04 13:13:16;;;;;;;14.02;10.68;;;;;;;;;;5013393;28;20029;-65
2024/01/04 13:15:42;;;;;;;14.63;11.07;;;;;;;;;;5012590;28;20053;-65
2024/01/04 13:18:09;;;;;;;20.25;10.93;;;;;;;;;;5012806;28;20129;-66
2024/01/04 13:20:35;;;;;;;13.00;10.80;;;;;;;;;;5012516;28;20389;-66
2024/01/04 13:23:02;;;;;;;15.18;10.18;;;;;;;;;;5012615;28;20026;-65
2024/01/04 13:25:28;;;;;;;13.77;9.65;;;;;;;;;;5012493;28;20475;-65
2024/01/04 13:27:54;;;;;;;12.27;9.80;;;;;;;;;;5012468;28;20060;-65
2024/01/04 13:30:20;;;;;;;12.32;9.25;;;;;;;;;;5012605;28;20464;-65
2024/01/04 13:32:46;;;;;;;15.23;10.15;;;;;;;;;;5012369;28;20036;-65
2024/01/04 13:35:12;;;;;;;12.25;8.68;;;;;;;;;;5011661;28;20117;-65
2024/01/04 13:37:38;;;;;;;13.20;9.00;;;;;;;;;;4999178;28;20113;-65
2024/01/04 13:40:09;;;;;;;12.93;8.90;;;;;;;;;;4991744;28;20471;-65
2024/01/04 13:42:35;;;;;;;12.27;8.70;;;;;;;;;;4992111;28;20019;-65
2024/01/04 13:45:02;;;;;;;14.35;8.95;;;;;;;;;;4991714;28;20061;-65
2024/01/04 13:47:28;;;;;;;10.23;8.63;;;;;;;;;;4992389;28;20505;-65
2024/01/04 13:49:55;;;;;;;10.50;6.75;;;;;;;;;;4994115;28;20026;-64
2024/01/04 13:52:21;;;;;;;9.93;7.53;;;;;;;;;;4992508;28;20496;-64
2024/01/04 13:54:47;;;;;;;9.38;8.07;;;;;;;;;;5007641;28;20128;-64
2024/01/04 13:57:13;;;;;;;12.82;7.95;;;;;;;;;;4992920;28;20453;-65
2024/01/04 13:59:40;;;;;;;12.85;8.88;;;;;;;;;;4992718;28;20026;-65
2024/01/04 14:02:06;;;;;;;15.30;8.40;;;;;;;;;;5007472;28;20385;-65
2024/01/04 14:04:32;;;;;;;10.95;8.98;;;;;;;;;;4992182;28;20520;-64
2024/01/04 14:06:58;;;;;;;11.07;8.10;;;;;;;;;;5007791;28;20026;-65
2024/01/04 14:09:24;;;;;;;12.93;8.55;;;;;;;;;;4994362;28;20405;-65
2024/01/04 14:11:50;;;;;;;8.65;7.30;;;;;;;;;;4996491;28;20117;-64